Terminal Aerodrome Forecast
Issued by NWS

Home | Current Version | Previous Version | Text Only | Print | Product List | Glossary On
Versions: 1 2 3 4 5 6 7 8 9 10 11 12 13 14 15 16 17 18 19 20 21 22
000
FTUS41 KCAR 010523
TAFHUL
TAF
KHUL 010523Z 0106/0206 19006KT P6SM BKN250
     FM010900 17005KT P6SM BKN025
     FM011000 17005KT P6SM BKN050
     FM011500 16005KT P6SM BKN015
     FM011900 16006KT 6SM -SHRA BKN025
     FM012000 16006KT 6SM -SHRA BKN035
     FM012200 16007KT P6SM OVC040
     FM020500 16007KT P6SM OVC005=

USA.gov is the U.S. government's official web portal to all federal, state and local government web resources and services.